Hauptseite
METAR-TAF:

METAR-TAF

Flughäfen :

Nordholz, Deutschland

Fliegerhorst Nordholz

Breite: 53-46N, Länge: 008-40E, Höhe: 23 m

Beobachtung

Neuester Wetterbericht von vor 35 Minuten, um 13:20 UTC
Wind 17 kt aus Ost
Temperatur 1°C
Luftfeuchtigkeit 47%
Luftdruck 1032 hPa
Sichtweite 10 km oder mehr
Leicht bewölkt in der Höhe von 4000 ft

METAR: ETMN 241320Z 08017KT 9999 FEW040 01/M09 Q1032 BLU+

Zeit: 14:55 (13:55 UTC)

Prognose

Neuester Wetterbericht von vor 22 Stunden und 58 Minuten, um 14:57 UTC
Gültige Prognose vom 23 um 12 UTC bis 23 um 21 UTC
Wind 10 kt aus Ost
Sichtweite: 1600 m
Leicht bewölkt in der Höhe von 2000 ft
Durchbrochene Bewölkung in der Höhe von 22000 ft

TAF: ETMN 231457Z 2312/2321 09010KT 9999 NSW FEW020 BKN220 CANCEL 1600

Wetterbeobachtungen und Prognosen von mehr als 4000 Flughäfen (METAR und TAF Bericht).

Die verfügbaren Stationen werden durch gelbe und rote Markierungen auf der Karte dargestellt.

Führen Sie die Maus auf sie, um den Namen der Station zu sehen.

Darauf klicken, um die Beobachtung von Wetterbeobachtungen und Prognosen zu sehen.

Um die Karte zu ändern : klicken Sie auf den grünen Tasten mit einem schwarzen Kreuz Zum Vergrößern, auf den grünen Button mit einem Gedankenstrich zu verkleinern, oder auf die grünen Pfeile für benachbarte Karten.


METAR-TAF: